createdAt,value
2018-08-28T00:01:55.963Z,74.13
2018-08-28T00:04:25.607Z,74.00
2018-08-28T00:06:54.760Z,74.01
2018-08-28T00:09:23.903Z,74.25
2018-08-28T00:11:53.068Z,73.66
2018-08-28T00:14:23.075Z,74.16
2018-08-28T00:16:52.296Z,74.63
2018-08-28T00:19:21.381Z,74.37
2018-08-28T00:21:50.592Z,74.54
2018-08-28T00:24:19.760Z,74.82
2018-08-28T00:26:48.902Z,74.97
2018-08-28T00:29:18.105Z,74.76
2018-08-28T00:31:47.260Z,74.89
2018-08-28T00:34:16.444Z,74.42
2018-08-28T00:36:45.590Z,75.00
2018-08-28T00:39:14.641Z,74.82
2018-08-28T00:41:43.720Z,75.13
2018-08-28T00:44:12.809Z,75.15
2018-08-28T00:46:41.940Z,75.19
2018-08-28T00:49:11.206Z,75.48
2018-08-28T00:51:40.337Z,75.52
2018-08-28T00:54:09.534Z,75.38
2018-08-28T00:56:38.696Z,75.62
2018-08-28T00:59:07.943Z,75.47
2018-08-28T01:01:37.170Z,75.01
2018-08-28T01:04:06.354Z,74.94
2018-08-28T01:06:35.431Z,75.27
2018-08-28T01:09:05.559Z,75.14
2018-08-28T01:11:34.772Z,74.62
2018-08-28T01:14:03.987Z,74.69
2018-08-28T01:16:33.161Z,74.93
2018-08-28T01:19:02.375Z,74.47
2018-08-28T01:21:31.538Z,74.78
2018-08-28T01:24:00.708Z,74.99
2018-08-28T01:26:29.812Z,75.63
2018-08-28T01:28:58.967Z,75.35
2018-08-28T01:31:28.225Z,75.76
2018-08-28T01:33:57.464Z,75.87
2018-08-28T01:36:26.593Z,76.17
2018-08-28T01:38:55.681Z,76.28
2018-08-28T01:41:24.812Z,76.28
2018-08-28T01:43:54.066Z,75.95
2018-08-28T01:46:23.281Z,76.52
2018-08-28T01:48:52.444Z,76.80
2018-08-28T01:51:21.635Z,76.48
2018-08-28T01:53:50.846Z,76.91
2018-08-28T01:56:19.935Z,76.65
2018-08-28T01:58:49.163Z,77.04
2018-08-28T02:01:18.334Z,76.74
2018-08-28T02:03:47.424Z,77.02
2018-08-28T02:06:20.317Z,76.94
2018-08-28T02:08:49.369Z,77.04
2018-08-28T02:11:18.589Z,77.31
2018-08-28T02:13:47.699Z,77.28
2018-08-28T02:16:16.806Z,77.33
2018-08-28T02:18:46.079Z,77.61
2018-08-28T02:21:20.871Z,77.09
2018-08-28T02:23:49.965Z,76.96
2018-08-28T02:26:19.087Z,76.98
2018-08-28T02:28:48.235Z,77.16
2018-08-28T02:31:17.316Z,77.02
2018-08-28T02:33:46.635Z,77.59
2018-08-28T02:36:15.777Z,77.25
2018-08-28T02:38:44.917Z,77.72
2018-08-28T02:41:14.113Z,77.76
2018-08-28T02:43:43.207Z,78.21
2018-08-28T02:46:12.383Z,78.03
2018-08-28T02:48:41.605Z,78.08
2018-08-28T02:51:10.693Z,78.17
2018-08-28T02:53:39.883Z,78.89
2018-08-28T02:56:08.981Z,78.72
2018-08-28T02:58:38.048Z,79.19
2018-08-28T03:01:07.507Z,78.83
2018-08-28T03:03:36.612Z,79.10
2018-08-28T03:06:05.765Z,78.95
2018-08-28T03:08:34.862Z,79.17
2018-08-28T03:11:04.031Z,78.90
2018-08-28T03:13:33.226Z,78.63
2018-08-28T03:16:02.430Z,79.20
2018-08-28T03:18:31.617Z,79.27
2018-08-28T03:21:00.713Z,79.43
2018-08-28T03:23:29.930Z,78.96
2018-08-28T03:25:59.110Z,79.07
2018-08-28T03:28:28.241Z,79.09
2018-08-28T03:30:57.441Z,78.70
2018-08-28T03:33:26.690Z,78.85
2018-08-28T03:35:55.932Z,79.57
2018-08-28T03:38:25.160Z,79.65
2018-08-28T03:40:54.337Z,79.55
2018-08-28T03:43:23.421Z,79.77
2018-08-28T03:45:52.569Z,79.08
2018-08-28T03:48:21.763Z,79.58
2018-08-28T03:50:50.950Z,79.70
2018-08-28T03:53:20.677Z,80.01
2018-08-28T03:55:49.855Z,80.03
2018-08-28T03:58:19.147Z,80.13
2018-08-28T04:00:48.417Z,80.36
2018-08-28T04:03:17.543Z,80.19
2018-08-28T04:05:46.767Z,80.05
2018-08-28T04:08:15.967Z,79.85
2018-08-28T04:10:45.049Z,79.72
2018-08-28T04:13:14.153Z,80.59
2018-08-28T04:15:43.349Z,80.24
2018-08-28T04:18:12.471Z,80.18
2018-08-28T04:20:41.845Z,80.42
2018-08-28T04:23:11.003Z,80.19
2018-08-28T04:25:40.153Z,80.41
2018-08-28T04:28:09.324Z,80.38
2018-08-28T04:30:38.641Z,80.40
2018-08-28T04:33:07.930Z,80.01
2018-08-28T04:35:37.066Z,80.62
2018-08-28T04:38:06.400Z,80.46
2018-08-28T04:40:35.666Z,80.66
2018-08-28T04:43:04.924Z,80.18
2018-08-28T04:45:34.088Z,80.40
2018-08-28T04:48:03.218Z,80.67
2018-08-28T04:50:32.476Z,81.20
2018-08-28T04:53:01.613Z,80.80
2018-08-28T04:55:30.790Z,80.84
2018-08-28T04:57:59.976Z,80.85
2018-08-28T05:00:29.050Z,80.72
2018-08-28T05:02:58.222Z,80.90
2018-08-28T05:05:27.368Z,80.64
2018-08-28T05:07:56.485Z,80.37
2018-08-28T05:10:25.635Z,80.86
2018-08-28T05:12:54.750Z,80.74
2018-08-28T05:15:23.914Z,81.20
2018-08-28T05:17:53.075Z,81.06
2018-08-28T05:20:22.248Z,80.87
2018-08-28T05:22:51.386Z,81.54
2018-08-28T05:25:20.644Z,81.46
2018-08-28T05:27:50.947Z,81.43
2018-08-28T05:30:20.121Z,81.04
2018-08-28T05:32:49.141Z,81.07
2018-08-28T05:35:18.227Z,81.36
2018-08-28T05:37:47.320Z,81.17
2018-08-28T05:40:16.545Z,80.99
2018-08-28T05:42:45.838Z,81.03
2018-08-28T05:45:14.958Z,81.09
2018-08-28T05:47:44.105Z,81.17
2018-08-28T05:50:13.201Z,81.47
2018-08-28T05:52:42.346Z,81.28
2018-08-28T05:55:11.478Z,80.81
2018-08-28T05:57:40.632Z,81.40
2018-08-28T06:00:10.068Z,81.30
2018-08-28T06:02:39.197Z,80.44
2018-08-28T06:05:08.574Z,81.01
2018-08-28T06:07:37.775Z,80.68
2018-08-28T06:10:06.940Z,81.03
2018-08-28T06:12:36.144Z,80.73
2018-08-28T06:15:05.704Z,80.41
2018-08-28T06:17:34.886Z,80.95
2018-08-28T06:20:04.247Z,80.49
2018-08-28T06:22:33.436Z,80.61
2018-08-28T06:25:02.787Z,80.22
2018-08-28T06:27:31.932Z,80.45
2018-08-28T06:30:01.141Z,80.32
2018-08-28T06:32:30.512Z,79.88
2018-08-28T06:34:59.718Z,79.57
2018-08-28T06:37:30.044Z,80.04
2018-08-28T06:39:59.025Z,80.36
2018-08-28T06:42:28.106Z,80.65
2018-08-28T06:44:57.145Z,80.18
2018-08-28T06:47:26.253Z,80.30
2018-08-28T06:50:13.499Z,80.22
2018-08-28T06:52:49.125Z,80.12
2018-08-28T06:55:18.435Z,80.70
2018-08-28T06:57:48.129Z,80.28
2018-08-28T07:00:17.339Z,80.09
2018-08-28T07:02:46.888Z,79.90
2018-08-28T07:05:16.277Z,80.08
2018-08-28T07:07:45.411Z,80.07
2018-08-28T07:10:14.795Z,80.01
2018-08-28T07:12:44.015Z,79.90
2018-08-28T07:15:13.259Z,79.97
2018-08-28T07:17:42.915Z,80.00
2018-08-28T07:20:12.063Z,79.54
2018-08-28T07:22:41.391Z,79.66
2018-08-28T07:25:10.694Z,79.43
2018-08-28T07:27:40.160Z,79.74
2018-08-28T07:30:09.502Z,79.52
2018-08-28T07:32:39.097Z,78.78
2018-08-28T07:35:08.413Z,78.48
2018-08-28T07:37:37.659Z,79.05
2018-08-28T07:40:07.084Z,78.72
2018-08-28T07:42:36.385Z,78.22
2018-08-28T07:45:05.709Z,79.12
2018-08-28T07:47:34.927Z,78.69
2018-08-28T07:50:04.111Z,78.44
2018-08-28T07:52:33.273Z,77.80
2018-08-28T07:55:02.642Z,77.56
2018-08-28T07:57:32.196Z,77.06
2018-08-28T08:00:01.563Z,76.92
2018-08-28T08:02:36.727Z,77.11
2018-08-28T08:05:06.272Z,76.64
2018-08-28T08:07:35.485Z,76.39
2018-08-28T08:10:04.989Z,75.99
2018-08-28T08:12:34.213Z,75.64
2018-08-28T08:15:03.507Z,75.43
2018-08-28T08:17:32.709Z,74.77
2018-08-28T08:20:02.008Z,73.48
2018-08-28T08:22:31.236Z,71.76
2018-08-28T08:25:00.463Z,71.29
2018-08-28T08:27:29.590Z,69.39
2018-08-28T08:29:59.083Z,67.69
2018-08-28T08:32:28.269Z,67.80
2018-08-28T08:34:57.593Z,68.55
2018-08-28T08:37:29.720Z,67.97
2018-08-28T08:39:59.033Z,69.04
2018-08-28T08:42:28.289Z,68.96
2018-08-28T08:44:57.461Z,68.11
2018-08-28T08:47:26.785Z,67.50
2018-08-28T08:49:57.123Z,65.75
2018-08-28T08:52:26.403Z,68.04
2018-08-28T08:54:55.654Z,67.94
2018-08-28T08:57:25.000Z,69.39
2018-08-28T08:59:54.373Z,69.07
2018-08-28T09:02:23.745Z,68.81
2018-08-28T09:04:53.246Z,67.33
2018-08-28T09:07:22.309Z,66.35
2018-08-28T09:09:51.696Z,65.18
2018-08-28T09:12:21.011Z,65.54
2018-08-28T09:14:50.193Z,64.44
2018-08-28T09:17:19.401Z,63.67
2018-08-28T09:19:48.638Z,62.25
2018-08-28T09:22:18.072Z,62.25
2018-08-28T09:24:47.273Z,61.05
2018-08-28T09:27:16.589Z,61.14
2018-08-28T09:29:45.802Z,59.23
2018-08-28T09:32:15.048Z,57.59
2018-08-28T09:34:44.189Z,58.77
2018-08-28T09:37:13.537Z,57.73
2018-08-28T09:39:42.757Z,57.16
2018-08-28T09:42:12.015Z,57.77
2018-08-28T09:44:41.206Z,56.78
2018-08-28T09:47:11.441Z,55.52
2018-08-28T09:49:40.609Z,56.25
2018-08-28T09:52:09.918Z,56.17
2018-08-28T09:54:39.140Z,56.25
2018-08-28T09:57:08.399Z,54.74
2018-08-28T09:59:37.735Z,54.48
2018-08-28T10:02:07.055Z,55.30
2018-08-28T10:04:36.387Z,53.49
2018-08-28T10:07:05.586Z,54.82
2018-08-28T10:09:34.839Z,54.41
2018-08-28T10:12:04.227Z,53.69
2018-08-28T10:14:33.360Z,54.24
2018-08-28T10:17:02.951Z,53.42
2018-08-28T10:19:37.526Z,52.69
2018-08-28T10:22:12.252Z,51.39
2018-08-28T10:24:41.498Z,51.29
2018-08-28T10:27:10.777Z,52.59
2018-08-28T10:29:45.456Z,52.73
2018-08-28T10:32:14.708Z,51.97
2018-08-28T10:34:44.006Z,50.26
2018-08-28T10:37:13.152Z,50.70
2018-08-28T10:39:42.308Z,51.21
2018-08-28T10:42:11.560Z,52.26
2018-08-28T10:44:40.826Z,52.78
2018-08-28T10:47:10.068Z,53.63
2018-08-28T10:49:40.539Z,54.91
2018-08-28T10:52:09.792Z,55.23
2018-08-28T10:54:38.972Z,54.74
2018-08-28T10:57:08.248Z,53.26
2018-08-28T10:59:37.351Z,52.24
2018-08-28T11:02:06.695Z,52.09
2018-08-28T11:04:36.243Z,51.08
2018-08-28T11:07:05.526Z,52.06
2018-08-28T11:09:34.727Z,51.67
2018-08-28T11:12:03.989Z,51.67
2018-08-28T11:14:33.166Z,51.21
2018-08-28T11:17:02.271Z,51.68
2018-08-28T11:19:31.936Z,51.56
2018-08-28T11:22:01.188Z,51.55
2018-08-28T11:24:31.357Z,51.44
2018-08-28T11:27:00.487Z,51.84
2018-08-28T11:29:29.677Z,51.52
2018-08-28T11:31:58.897Z,51.29
2018-08-28T11:34:28.007Z,51.76
2018-08-28T11:36:57.372Z,52.45
2018-08-28T11:39:32.056Z,52.58
2018-08-28T11:42:01.224Z,52.65
2018-08-28T11:44:30.316Z,52.03
2018-08-28T11:46:59.534Z,52.64
2018-08-28T11:49:28.689Z,52.70
2018-08-28T11:51:57.892Z,52.29
2018-08-28T11:54:27.634Z,53.75
2018-08-28T11:56:57.312Z,55.52
2018-08-28T11:59:26.456Z,56.93
2018-08-28T12:01:55.692Z,57.88
2018-08-28T12:04:24.810Z,58.17
2018-08-28T12:06:54.015Z,58.44
2018-08-28T12:09:23.104Z,58.18
2018-08-28T12:11:52.312Z,58.62
2018-08-28T12:14:21.481Z,58.16
2018-08-28T12:16:50.970Z,57.76
2018-08-28T12:19:20.177Z,57.28
2018-08-28T12:21:49.432Z,57.53
2018-08-28T12:24:18.771Z,57.96
2018-08-28T12:26:47.959Z,56.75
2018-08-28T12:29:17.032Z,57.06
2018-08-28T12:31:46.255Z,57.03
2018-08-28T12:34:15.508Z,56.04
2018-08-28T12:36:44.791Z,56.04
2018-08-28T12:39:14.066Z,56.21
2018-08-28T12:41:43.392Z,55.54
2018-08-28T12:44:13.598Z,56.07
2018-08-28T12:46:42.768Z,55.62
2018-08-28T12:49:12.052Z,55.11
2018-08-28T12:51:41.345Z,56.92
2018-08-28T12:54:10.521Z,57.26
2018-08-28T12:56:39.712Z,57.55
2018-08-28T12:59:08.972Z,57.71
2018-08-28T13:01:38.333Z,58.07
2018-08-28T13:04:07.561Z,56.41
2018-08-28T13:06:36.798Z,56.32
2018-08-28T13:09:07.090Z,56.04
2018-08-28T13:11:36.270Z,55.81
2018-08-28T13:14:05.481Z,55.40
2018-08-28T13:16:34.703Z,55.43
2018-08-28T13:19:04.111Z,54.93
2018-08-28T13:21:33.506Z,55.10
2018-08-28T13:24:02.685Z,54.78
2018-08-28T13:26:32.114Z,55.38
2018-08-28T13:29:01.518Z,55.09
2018-08-28T13:31:30.628Z,54.93
2018-08-28T13:33:59.804Z,55.13
2018-08-28T13:36:29.174Z,56.09
2018-08-28T13:38:58.412Z,55.84
2018-08-28T13:41:27.849Z,55.07
2018-08-28T13:43:57.206Z,54.34
2018-08-28T13:46:26.409Z,54.30
2018-08-28T13:48:55.514Z,54.88
2018-08-28T13:51:25.130Z,54.40
2018-08-28T13:53:54.465Z,54.27
2018-08-28T13:56:23.694Z,53.91
2018-08-28T13:58:52.804Z,54.24
2018-08-28T14:01:22.361Z,55.21
2018-08-28T14:03:51.948Z,54.39
2018-08-28T14:06:21.428Z,53.90
2018-08-28T14:08:50.680Z,54.20
2018-08-28T14:11:20.028Z,54.66
2018-08-28T14:13:49.386Z,54.77
2018-08-28T14:16:19.118Z,55.74
2018-08-28T14:18:49.319Z,55.14
2018-08-28T14:21:18.691Z,55.73
2018-08-28T14:23:48.157Z,55.51
2018-08-28T14:26:17.642Z,54.89
2018-08-28T14:28:47.086Z,55.32
2018-08-28T14:31:16.091Z,55.50
2018-08-28T14:33:45.775Z,55.84
2018-08-28T14:36:14.898Z,55.74
2018-08-28T14:38:44.031Z,55.48
2018-08-28T14:41:14.230Z,55.77
2018-08-28T14:43:43.649Z,56.29
2018-08-28T14:46:13.089Z,55.92
2018-08-28T14:48:42.168Z,55.86
2018-08-28T14:51:11.263Z,55.80
2018-08-28T14:53:41.317Z,56.00
2018-08-28T14:56:10.816Z,56.26
2018-08-28T14:58:40.514Z,55.09
2018-08-28T15:01:10.274Z,55.25
2018-08-28T15:03:39.637Z,55.08
2018-08-28T15:06:08.735Z,55.31
2018-08-28T15:08:38.023Z,54.44
2018-08-28T15:11:07.223Z,54.58
2018-08-28T15:13:36.687Z,55.23
2018-08-28T15:16:06.537Z,55.17
2018-08-28T15:18:35.688Z,55.05
2018-08-28T15:21:05.140Z,55.25
2018-08-28T15:23:38.347Z,54.36
2018-08-28T15:26:07.754Z,53.48
2018-08-28T15:28:42.540Z,54.15
2018-08-28T15:31:17.322Z,54.26
2018-08-28T15:33:46.990Z,54.23
2018-08-28T15:36:16.892Z,54.78
2018-08-28T15:38:46.140Z,54.54
2018-08-28T15:41:15.462Z,53.68
2018-08-28T15:43:44.711Z,54.36
2018-08-28T15:46:14.173Z,54.96
2018-08-28T15:48:43.340Z,54.57
2018-08-28T15:51:12.769Z,54.33
2018-08-28T15:53:42.830Z,54.30
2018-08-28T15:56:12.315Z,54.59
2018-08-28T15:58:41.858Z,54.85
2018-08-28T16:01:11.214Z,54.19
2018-08-28T16:03:40.850Z,55.39
2018-08-28T16:06:10.444Z,55.38
2018-08-28T16:08:39.655Z,54.08
2018-08-28T16:11:09.019Z,53.99
2018-08-28T16:13:38.332Z,52.74
2018-08-28T16:16:07.936Z,52.07
2018-08-28T16:18:37.156Z,52.09
2018-08-28T16:21:07.694Z,52.51
2018-08-28T16:23:39.513Z,51.91
2018-08-28T16:26:08.999Z,52.70
2018-08-28T16:28:38.553Z,52.31
2018-08-28T16:31:07.689Z,50.54
2018-08-28T16:33:37.433Z,49.73
2018-08-28T16:36:06.738Z,50.17
2018-08-28T16:38:36.689Z,50.30
2018-08-28T16:41:05.835Z,51.52
2018-08-28T16:43:35.060Z,50.88
2018-08-28T16:46:04.205Z,50.55
2018-08-28T16:48:33.455Z,51.14
2018-08-28T16:51:02.651Z,51.04
2018-08-28T16:53:31.804Z,51.43
2018-08-28T16:56:01.209Z,51.60
2018-08-28T16:58:30.668Z,51.37
2018-08-28T17:00:59.974Z,51.26
2018-08-28T17:03:29.171Z,51.96
2018-08-28T17:05:58.633Z,51.56
2018-08-28T17:08:28.206Z,51.76
2018-08-28T17:10:57.336Z,52.02
2018-08-28T17:13:26.535Z,52.27
2018-08-28T17:16:01.459Z,51.66
2018-08-28T17:18:32.123Z,51.64
2018-08-28T17:21:01.623Z,52.54
2018-08-28T17:23:31.365Z,52.10
2018-08-28T17:26:00.805Z,52.32
2018-08-28T17:28:29.923Z,52.60
2018-08-28T17:30:59.358Z,52.65
2018-08-28T17:33:28.611Z,52.53
2018-08-28T17:35:57.790Z,52.44
2018-08-28T17:38:26.897Z,52.05
2018-08-28T17:40:57.285Z,51.69
2018-08-28T17:43:27.773Z,51.75
2018-08-28T17:45:57.279Z,52.44
2018-08-28T17:48:26.642Z,52.19
2018-08-28T17:50:56.799Z,51.94
2018-08-28T17:53:26.077Z,52.31
2018-08-28T17:55:55.209Z,51.83
2018-08-28T17:58:25.029Z,52.40
2018-08-28T18:00:54.309Z,52.20
2018-08-28T18:03:23.741Z,52.27
2018-08-28T18:05:53.134Z,52.39
2018-08-28T18:08:28.340Z,51.76
2018-08-28T18:10:57.443Z,52.17
2018-08-28T18:13:26.629Z,52.12
2018-08-28T18:15:56.031Z,51.79
2018-08-28T18:18:25.457Z,52.04
2018-08-28T18:20:54.817Z,52.48
2018-08-28T18:23:23.922Z,52.01
2018-08-28T18:25:53.384Z,51.97
2018-08-28T18:28:22.965Z,53.89
2018-08-28T18:30:52.176Z,54.75
2018-08-28T18:33:21.351Z,54.44
2018-08-28T18:35:50.857Z,54.94
2018-08-28T18:38:20.070Z,55.01
2018-08-28T18:40:49.748Z,55.04
2018-08-28T18:43:19.068Z,55.90
2018-08-28T18:45:48.605Z,55.60
2018-08-28T18:48:17.893Z,55.92
2018-08-28T18:50:47.340Z,57.13
2018-08-28T18:53:16.700Z,57.54
2018-08-28T18:55:46.193Z,57.04
2018-08-28T18:58:15.461Z,57.42
2018-08-28T19:00:44.633Z,57.04
2018-08-28T19:03:14.047Z,57.11
2018-08-28T19:05:43.371Z,58.24
2018-08-28T19:08:12.755Z,58.34
2018-08-28T19:10:41.937Z,57.54
2018-08-28T19:13:11.116Z,57.99
2018-08-28T19:15:40.472Z,57.76
2018-08-28T19:18:09.804Z,58.36
2018-08-28T19:20:39.122Z,58.45
2018-08-28T19:23:08.862Z,58.02
2018-08-28T19:25:38.212Z,58.77
2018-08-28T19:28:07.405Z,58.92
2018-08-28T19:30:36.635Z,58.71
2018-08-28T19:33:06.045Z,58.89
2018-08-28T19:35:35.323Z,59.54
2018-08-28T19:38:04.749Z,59.30
2018-08-28T19:40:35.158Z,58.98
2018-08-28T19:43:04.329Z,59.03
2018-08-28T19:45:33.481Z,59.29
2018-08-28T19:48:03.296Z,59.57
2018-08-28T19:50:32.584Z,58.95
2018-08-28T19:53:01.713Z,59.00
2018-08-28T19:55:31.104Z,59.36
2018-08-28T19:58:00.544Z,59.06
2018-08-28T20:00:29.765Z,59.41
2018-08-28T20:02:59.307Z,59.44
2018-08-28T20:05:28.540Z,59.58
2018-08-28T20:07:57.638Z,59.80
2018-08-28T20:10:26.810Z,60.18
2018-08-28T20:12:55.973Z,60.32
2018-08-28T20:15:25.139Z,60.72
2018-08-28T20:17:54.318Z,60.46
2018-08-28T20:20:23.569Z,60.70
2018-08-28T20:22:52.822Z,61.13
2018-08-28T20:25:21.888Z,61.35
2018-08-28T20:27:51.078Z,60.65
2018-08-28T20:30:20.318Z,60.72
2018-08-28T20:32:49.432Z,61.61
2018-08-28T20:35:18.537Z,62.11
2018-08-28T20:37:47.661Z,61.76
2018-08-28T20:40:16.830Z,61.77
2018-08-28T20:42:51.556Z,61.80
2018-08-28T20:45:20.800Z,61.50
2018-08-28T20:47:55.479Z,62.29
2018-08-28T20:50:24.727Z,62.81
2018-08-28T20:52:53.979Z,62.92
2018-08-28T20:55:23.301Z,62.24
2018-08-28T20:57:52.504Z,62.17
2018-08-28T21:00:21.551Z,62.34
2018-08-28T21:02:50.811Z,62.32
2018-08-28T21:05:25.298Z,62.66
2018-08-28T21:07:54.421Z,62.96
2018-08-28T21:10:23.628Z,63.12
2018-08-28T21:12:53.050Z,63.31
2018-08-28T21:15:22.295Z,63.15
2018-08-28T21:17:51.699Z,62.91
2018-08-28T21:20:20.959Z,64.02
2018-08-28T21:22:50.315Z,62.87
2018-08-28T21:25:19.363Z,63.41
2018-08-28T21:27:48.569Z,64.44
2018-08-28T21:30:17.729Z,64.51
2018-08-28T21:32:46.859Z,64.17
2018-08-28T21:35:15.975Z,64.68
2018-08-28T21:37:45.268Z,65.00
2018-08-28T21:40:14.501Z,64.80
2018-08-28T21:42:43.625Z,64.56
2018-08-28T21:45:12.829Z,65.35
2018-08-28T21:47:41.969Z,65.58
2018-08-28T21:50:11.217Z,65.06
2018-08-28T21:52:40.371Z,66.00
2018-08-28T21:55:09.471Z,65.11
2018-08-28T21:57:44.243Z,65.10
2018-08-28T22:00:18.868Z,64.98
2018-08-28T22:02:48.092Z,64.45
2018-08-28T22:05:17.217Z,65.30
2018-08-28T22:07:46.381Z,65.36
2018-08-28T22:10:15.575Z,64.89
2018-08-28T22:12:44.622Z,65.09
2018-08-28T22:15:14.496Z,64.89
2018-08-28T22:17:43.601Z,65.37
2018-08-28T22:20:12.772Z,65.55
2018-08-28T22:22:41.870Z,65.52
2018-08-28T22:25:10.965Z,65.91
2018-08-28T22:27:40.089Z,65.56
2018-08-28T22:30:09.894Z,65.75
2018-08-28T22:32:39.751Z,66.75
2018-08-28T22:35:09.112Z,66.37
2018-08-28T22:37:38.291Z,66.76
2018-08-28T22:40:09.919Z,66.92
2018-08-28T22:42:39.175Z,66.92
2018-08-28T22:45:08.396Z,66.94
2018-08-28T22:47:37.617Z,67.06
2018-08-28T22:50:07.045Z,66.98
2018-08-28T22:52:36.200Z,66.94
2018-08-28T22:55:05.359Z,67.16
2018-08-28T23:00:34.428Z,67.62
2018-08-28T23:03:03.563Z,67.60
2018-08-28T23:05:32.751Z,67.52
2018-08-28T23:08:02.022Z,68.00
2018-08-28T23:10:31.205Z,68.09
2018-08-28T23:13:00.509Z,67.75
2018-08-28T23:15:29.728Z,68.18
2018-08-28T23:17:58.881Z,67.82
2018-08-28T23:20:28.080Z,67.45
2018-08-28T23:22:57.213Z,67.86
2018-08-28T23:25:26.399Z,68.06
2018-08-28T23:27:55.531Z,68.20
2018-08-28T23:30:24.710Z,68.21
2018-08-28T23:32:53.771Z,67.95
2018-08-28T23:35:22.949Z,68.68
2018-08-28T23:37:52.053Z,68.45
2018-08-28T23:40:21.251Z,68.93
2018-08-28T23:42:50.441Z,69.02
2018-08-28T23:45:19.521Z,69.25
2018-08-28T23:47:48.601Z,69.04
2018-08-28T23:50:17.833Z,69.44
2018-08-28T23:52:46.773Z,70.05
2018-08-28T23:55:15.811Z,70.43
2018-08-28T23:57:44.754Z,70.20
